KHUL/HUL METAR and TAF weather

Enter ICAO airport designator
Station Type Date Time Source
KHUL METAR 2021/01/22 06:53 UTC NOAA

KHUL 220653Z AUTO 03003KT 3SM -SN BR SCT021 BKN028 OVC033 M14/M17 A2960 RMK AO2 SNE0558B26 SLP034 P0000 T11441167


Station Type Date Time Source
KHUL Decoded METAR 2021/01/22 06:53 UTC NOAA

HOULTON INT'L AIRPORT, ME, United States (KHUL) 46-07N 067-48W 150M
Jan 22, 2021 - 01:53 AM EST / 2021.01.22 0653 UTC
Wind: from the NNE (030 degrees) at 3 MPH (3 KT):0
Visibility: 3 mile(s):0
Sky conditions: overcast
Weather: light snow; mist
Precipitation last hour: A trace
Temperature: 6.1 F (-14.4 C)
Dew Point: 1.9 F (-16.7 C)
Relative Humidity: 82%
Pressure (altimeter): 29.6 in. Hg (1002 hPa)
ob: KHUL 220653Z AUTO 03003KT 3SM -SN BR SCT021 BKN028 OVC033 M14/M17 A2960 RMK AO2 SNE0558B26 SLP034 P0000 T11441167
cycle: 7

Station Type Date Time Source
KHUL TAF 2021/01/22 06:34 UTC NOAA

TAF KHUL 220532Z 2206/2306 09004KT P6SM VCSH BKN025 OVC035
FM220900 09006KT 5SM -SHSN OVC025
FM221800 09006KT P6SM VCSH OVC025
FM222200 07006KT P6SM VCSH OVC015

Example: see airport list